sensor_id;sensor_type;location;lat;lon;timestamp;P1;durP1;ratioP1;P2;durP2;ratioP2
25249;SDS011;13201;51.148;13.738;2023-06-10T00:02:06;4.78;;;3.70;;
25249;SDS011;13201;51.148;13.738;2023-06-10T00:04:32;4.70;;;3.77;;
25249;SDS011;13201;51.148;13.738;2023-06-10T00:06:58;5.43;;;4.00;;
25249;SDS011;13201;51.148;13.738;2023-06-10T00:09:24;6.72;;;4.07;;
25249;SDS011;13201;51.148;13.738;2023-06-10T00:11:50;7.07;;;4.03;;
25249;SDS011;13201;51.148;13.738;2023-06-10T00:14:16;5.40;;;4.32;;
25249;SDS011;13201;51.148;13.738;2023-06-10T00:16:42;7.43;;;4.30;;
25249;SDS011;13201;51.148;13.738;2023-06-10T00:19:09;5.82;;;4.13;;
25249;SDS011;13201;51.148;13.738;2023-06-10T00:21:39;4.93;;;3.72;;
25249;SDS011;13201;51.148;13.738;2023-06-10T00:24:09;7.60;;;4.30;;
25249;SDS011;13201;51.148;13.738;2023-06-10T00:26:37;9.20;;;4.25;;
25249;SDS011;13201;51.148;13.738;2023-06-10T00:29:04;4.85;;;3.92;;
25249;SDS011;13201;51.148;13.738;2023-06-10T00:31:30;11.33;;;4.47;;
25249;SDS011;13201;51.148;13.738;2023-06-10T00:33:56;5.22;;;4.13;;
25249;SDS011;13201;51.148;13.738;2023-06-10T00:36:21;5.88;;;4.07;;
25249;SDS011;13201;51.148;13.738;2023-06-10T00:38:47;6.47;;;4.50;;
25249;SDS011;13201;51.148;13.738;2023-06-10T00:41:13;5.93;;;4.38;;
25249;SDS011;13201;51.148;13.738;2023-06-10T00:43:39;5.80;;;4.60;;
25249;SDS011;13201;51.148;13.738;2023-06-10T00:46:05;6.05;;;4.75;;
25249;SDS011;13201;51.148;13.738;2023-06-10T00:48:31;5.35;;;4.38;;
25249;SDS011;13201;51.148;13.738;2023-06-10T00:50:57;5.60;;;4.07;;
25249;SDS011;13201;51.148;13.738;2023-06-10T00:53:24;6.15;;;4.55;;
25249;SDS011;13201;51.148;13.738;2023-06-10T00:55:50;7.63;;;4.70;;
25249;SDS011;13201;51.148;13.738;2023-06-10T00:58:16;9.25;;;5.72;;
25249;SDS011;13201;51.148;13.738;2023-06-10T01:00:42;8.63;;;5.10;;
25249;SDS011;13201;51.148;13.738;2023-06-10T01:03:07;8.95;;;5.30;;
25249;SDS011;13201;51.148;13.738;2023-06-10T01:30:04;10.70;;;6.75;;
25249;SDS011;13201;51.148;13.738;2023-06-10T01:32:40;9.63;;;6.22;;
25249;SDS011;13201;51.148;13.738;2023-06-10T01:35:10;9.15;;;6.18;;
25249;SDS011;13201;51.148;13.738;2023-06-10T01:37:40;7.35;;;6.18;;
25249;SDS011;13201;51.148;13.738;2023-06-10T01:40:10;9.38;;;5.97;;
25249;SDS011;13201;51.148;13.738;2023-06-10T01:45:02;7.20;;;5.60;;
25249;SDS011;13201;51.148;13.738;2023-06-10T01:47:28;8.47;;;6.50;;
25249;SDS011;13201;51.148;13.738;2023-06-10T01:49:54;8.90;;;6.10;;
25249;SDS011;13201;51.148;13.738;2023-06-10T01:52:20;8.80;;;6.35;;
25249;SDS011;13201;51.148;13.738;2023-06-10T01:54:45;9.00;;;5.88;;
25249;SDS011;13201;51.148;13.738;2023-06-10T01:57:11;6.90;;;5.55;;
25249;SDS011;13201;51.148;13.738;2023-06-10T01:59:37;12.27;;;6.38;;
25249;SDS011;13201;51.148;13.738;2023-06-10T02:02:03;8.95;;;6.95;;
25249;SDS011;13201;51.148;13.738;2023-06-10T02:04:30;8.60;;;6.60;;
25249;SDS011;13201;51.148;13.738;2023-06-10T02:06:55;10.00;;;6.10;;
25249;SDS011;13201;51.148;13.738;2023-06-10T02:09:21;8.40;;;6.05;;
25249;SDS011;13201;51.148;13.738;2023-06-10T02:11:48;9.15;;;6.22;;
25249;SDS011;13201;51.148;13.738;2023-06-10T02:14:14;9.48;;;6.82;;
25249;SDS011;13201;51.148;13.738;2023-06-10T02:16:40;12.03;;;6.93;;
25249;SDS011;13201;51.148;13.738;2023-06-10T02:19:06;11.35;;;6.97;;
25249;SDS011;13201;51.148;13.738;2023-06-10T02:21:32;9.55;;;6.57;;
25249;SDS011;13201;51.148;13.738;2023-06-10T02:23:59;8.30;;;6.55;;
25249;SDS011;13201;51.148;13.738;2023-06-10T02:26:26;10.95;;;6.80;;
25249;SDS011;13201;51.148;13.738;2023-06-10T02:28:51;8.10;;;6.15;;
25249;SDS011;13201;51.148;13.738;2023-06-10T02:31:17;10.52;;;6.63;;
25249;SDS011;13201;51.148;13.738;2023-06-10T02:33:43;7.80;;;5.70;;
25249;SDS011;13201;51.148;13.738;2023-06-10T02:36:09;9.27;;;6.47;;
25249;SDS011;13201;51.148;13.738;2023-06-10T02:38:39;10.35;;;6.80;;
25249;SDS011;13201;51.148;13.738;2023-06-10T02:43:31;7.60;;;5.47;;
25249;SDS011;13201;51.148;13.738;2023-06-10T02:45:56;8.52;;;5.75;;
25249;SDS011;13201;51.148;13.738;2023-06-10T02:48:25;9.05;;;6.28;;
25249;SDS011;13201;51.148;13.738;2023-06-10T02:50:52;10.55;;;5.95;;
25249;SDS011;13201;51.148;13.738;2023-06-10T02:53:17;7.45;;;6.18;;
25249;SDS011;13201;51.148;13.738;2023-06-10T02:55:43;9.57;;;6.00;;
25249;SDS011;13201;51.148;13.738;2023-06-10T02:58:09;9.20;;;6.55;;
25249;SDS011;13201;51.148;13.738;2023-06-10T03:00:35;8.23;;;5.97;;
25249;SDS011;13201;51.148;13.738;2023-06-10T03:03:01;9.15;;;6.57;;
25249;SDS011;13201;51.148;13.738;2023-06-10T03:05:32;10.75;;;6.75;;
25249;SDS011;13201;51.148;13.738;2023-06-10T03:07:57;11.45;;;6.32;;
25249;SDS011;13201;51.148;13.738;2023-06-10T03:10:24;8.38;;;6.05;;
25249;SDS011;13201;51.148;13.738;2023-06-10T03:12:50;7.43;;;5.97;;
25249;SDS011;13201;51.148;13.738;2023-06-10T03:15:16;12.30;;;6.97;;
25249;SDS011;13201;51.148;13.738;2023-06-10T03:17:41;8.32;;;6.18;;
25249;SDS011;13201;51.148;13.738;2023-06-10T03:20:07;7.80;;;6.30;;
25249;SDS011;13201;51.148;13.738;2023-06-10T03:22:35;11.18;;;5.82;;
25249;SDS011;13201;51.148;13.738;2023-06-10T03:25:01;12.95;;;5.93;;
25249;SDS011;13201;51.148;13.738;2023-06-10T03:27:27;8.82;;;6.40;;
25249;SDS011;13201;51.148;13.738;2023-06-10T03:29:54;7.78;;;6.35;;
25249;SDS011;13201;51.148;13.738;2023-06-10T03:32:20;8.30;;;6.15;;
25249;SDS011;13201;51.148;13.738;2023-06-10T03:34:45;10.63;;;6.45;;
25249;SDS011;13201;51.148;13.738;2023-06-10T03:37:12;11.13;;;6.43;;
25249;SDS011;13201;51.148;13.738;2023-06-10T03:39:38;11.52;;;6.70;;
25249;SDS011;13201;51.148;13.738;2023-06-10T03:42:04;8.88;;;6.40;;
25249;SDS011;13201;51.148;13.738;2023-06-10T03:44:30;9.17;;;7.03;;
25249;SDS011;13201;51.148;13.738;2023-06-10T03:46:56;9.90;;;6.70;;
25249;SDS011;13201;51.148;13.738;2023-06-10T03:49:22;9.30;;;6.60;;
25249;SDS011;13201;51.148;13.738;2023-06-10T03:51:50;8.48;;;6.20;;
25249;SDS011;13201;51.148;13.738;2023-06-10T03:54:16;9.93;;;7.35;;
25249;SDS011;13201;51.148;13.738;2023-06-10T03:56:42;12.93;;;7.75;;
25249;SDS011;13201;51.148;13.738;2023-06-10T03:59:07;9.77;;;7.78;;
25249;SDS011;13201;51.148;13.738;2023-06-10T04:01:33;10.20;;;7.82;;
25249;SDS011;13201;51.148;13.738;2023-06-10T04:04:00;9.57;;;7.72;;
25249;SDS011;13201;51.148;13.738;2023-06-10T04:06:26;10.70;;;8.40;;
25249;SDS011;13201;51.148;13.738;2023-06-10T04:08:54;10.38;;;7.85;;
25249;SDS011;13201;51.148;13.738;2023-06-10T04:11:21;12.98;;;7.35;;
25249;SDS011;13201;51.148;13.738;2023-06-10T04:16:14;9.23;;;6.83;;
25249;SDS011;13201;51.148;13.738;2023-06-10T04:18:40;10.30;;;6.80;;
25249;SDS011;13201;51.148;13.738;2023-06-10T04:21:07;8.23;;;6.63;;
25249;SDS011;13201;51.148;13.738;2023-06-10T04:23:34;18.20;;;8.30;;
25249;SDS011;13201;51.148;13.738;2023-06-10T04:26:02;11.27;;;7.93;;
25249;SDS011;13201;51.148;13.738;2023-06-10T04:28:27;11.00;;;8.33;;
25249;SDS011;13201;51.148;13.738;2023-06-10T04:30:53;10.15;;;7.15;;
25249;SDS011;13201;51.148;13.738;2023-06-10T04:33:19;10.30;;;7.97;;
25249;SDS011;13201;51.148;13.738;2023-06-10T04:35:44;15.70;;;7.55;;
25249;SDS011;13201;51.148;13.738;2023-06-10T04:38:12;15.32;;;8.25;;
25249;SDS011;13201;51.148;13.738;2023-06-10T04:40:38;13.40;;;8.35;;
25249;SDS011;13201;51.148;13.738;2023-06-10T04:43:05;11.52;;;7.82;;
25249;SDS011;13201;51.148;13.738;2023-06-10T04:45:30;11.13;;;8.35;;
25249;SDS011;13201;51.148;13.738;2023-06-10T04:47:56;12.77;;;8.80;;
25249;SDS011;13201;51.148;13.738;2023-06-10T04:50:23;12.43;;;9.15;;
25249;SDS011;13201;51.148;13.738;2023-06-10T04:52:48;13.20;;;9.35;;
25249;SDS011;13201;51.148;13.738;2023-06-10T04:55:15;13.23;;;9.48;;
25249;SDS011;13201;51.148;13.738;2023-06-10T04:57:41;13.32;;;9.40;;
25249;SDS011;13201;51.148;13.738;2023-06-10T05:00:06;13.13;;;9.32;;
25249;SDS011;13201;51.148;13.738;2023-06-10T05:02:33;14.20;;;10.45;;
25249;SDS011;13201;51.148;13.738;2023-06-10T05:04:59;14.77;;;10.60;;
25249;SDS011;13201;51.148;13.738;2023-06-10T05:07:25;12.23;;;9.55;;
25249;SDS011;13201;51.148;13.738;2023-06-10T05:09:51;17.58;;;9.98;;
25249;SDS011;13201;51.148;13.738;2023-06-10T05:12:16;11.27;;;8.65;;
25249;SDS011;13201;51.148;13.738;2023-06-10T05:14:42;12.95;;;9.40;;
25249;SDS011;13201;51.148;13.738;2023-06-10T05:17:09;11.38;;;9.05;;
25249;SDS011;13201;51.148;13.738;2023-06-10T05:19:35;12.10;;;9.40;;
25249;SDS011;13201;51.148;13.738;2023-06-10T05:22:02;12.52;;;9.60;;
25249;SDS011;13201;51.148;13.738;2023-06-10T05:24:28;15.40;;;10.17;;
25249;SDS011;13201;51.148;13.738;2023-06-10T05:26:54;17.92;;;10.40;;
25249;SDS011;13201;51.148;13.738;2023-06-10T05:29:19;13.02;;;9.52;;
25249;SDS011;13201;51.148;13.738;2023-06-10T05:31:45;12.40;;;9.32;;
25249;SDS011;13201;51.148;13.738;2023-06-10T05:34:11;11.15;;;8.80;;
25249;SDS011;13201;51.148;13.738;2023-06-10T05:36:36;11.88;;;8.98;;
25249;SDS011;13201;51.148;13.738;2023-06-10T05:39:02;12.82;;;8.65;;
25249;SDS011;13201;51.148;13.738;2023-06-10T05:41:28;12.40;;;9.18;;
25249;SDS011;13201;51.148;13.738;2023-06-10T05:43:54;13.15;;;9.07;;
25249;SDS011;13201;51.148;13.738;2023-06-10T05:46:20;11.82;;;9.10;;
25249;SDS011;13201;51.148;13.738;2023-06-10T05:48:45;13.10;;;9.15;;
25249;SDS011;13201;51.148;13.738;2023-06-10T05:51:11;12.50;;;9.13;;
25249;SDS011;13201;51.148;13.738;2023-06-10T05:53:37;10.07;;;8.80;;
25249;SDS011;13201;51.148;13.738;2023-06-10T05:56:03;11.43;;;8.33;;
25249;SDS011;13201;51.148;13.738;2023-06-10T05:58:29;11.98;;;7.22;;
25249;SDS011;13201;51.148;13.738;2023-06-10T06:00:55;9.65;;;7.75;;
25249;SDS011;13201;51.148;13.738;2023-06-10T06:03:20;11.07;;;8.02;;
25249;SDS011;13201;51.148;13.738;2023-06-10T06:05:46;11.80;;;7.55;;
25249;SDS011;13201;51.148;13.738;2023-06-10T06:08:12;12.82;;;7.90;;
25249;SDS011;13201;51.148;13.738;2023-06-10T06:10:43;9.95;;;7.47;;
25249;SDS011;13201;51.148;13.738;2023-06-10T06:13:15;7.20;;;5.60;;
25249;SDS011;13201;51.148;13.738;2023-06-10T06:15:41;9.40;;;5.97;;
25249;SDS011;13201;51.148;13.738;2023-06-10T06:18:06;7.20;;;5.85;;
25249;SDS011;13201;51.148;13.738;2023-06-10T06:20:32;6.97;;;5.57;;
25249;SDS011;13201;51.148;13.738;2023-06-10T06:22:57;8.55;;;5.88;;
25249;SDS011;13201;51.148;13.738;2023-06-10T06:25:23;7.60;;;5.60;;
25249;SDS011;13201;51.148;13.738;2023-06-10T06:27:49;8.00;;;5.88;;
25249;SDS011;13201;51.148;13.738;2023-06-10T06:30:14;8.65;;;6.40;;
25249;SDS011;13201;51.148;13.738;2023-06-10T06:32:40;7.38;;;5.78;;
25249;SDS011;13201;51.148;13.738;2023-06-10T06:35:06;9.00;;;6.55;;
25249;SDS011;13201;51.148;13.738;2023-06-10T06:37:33;7.55;;;5.93;;
25249;SDS011;13201;51.148;13.738;2023-06-10T06:39:58;8.88;;;6.05;;
25249;SDS011;13201;51.148;13.738;2023-06-10T06:42:24;8.13;;;6.35;;
25249;SDS011;13201;51.148;13.738;2023-06-10T06:44:50;8.18;;;6.43;;
25249;SDS011;13201;51.148;13.738;2023-06-10T06:47:16;10.43;;;6.10;;
25249;SDS011;13201;51.148;13.738;2023-06-10T06:49:47;9.82;;;6.90;;
25249;SDS011;13201;51.148;13.738;2023-06-10T06:52:13;9.75;;;5.63;;
25249;SDS011;13201;51.148;13.738;2023-06-10T06:54:40;6.57;;;5.70;;
25249;SDS011;13201;51.148;13.738;2023-06-10T06:57:05;6.28;;;5.63;;
25249;SDS011;13201;51.148;13.738;2023-06-10T06:59:32;8.40;;;5.03;;
25249;SDS011;13201;51.148;13.738;2023-06-10T07:01:58;7.27;;;4.90;;
25249;SDS011;13201;51.148;13.738;2023-06-10T07:04:23;6.68;;;4.40;;
25249;SDS011;13201;51.148;13.738;2023-06-10T07:06:49;10.90;;;4.28;;
25249;SDS011;13201;51.148;13.738;2023-06-10T07:09:15;6.68;;;4.05;;
25249;SDS011;13201;51.148;13.738;2023-06-10T07:11:41;6.03;;;3.97;;
25249;SDS011;13201;51.148;13.738;2023-06-10T07:14:07;6.72;;;4.45;;
25249;SDS011;13201;51.148;13.738;2023-06-10T07:16:32;5.13;;;3.63;;
25249;SDS011;13201;51.148;13.738;2023-06-10T07:18:59;5.90;;;4.37;;
25249;SDS011;13201;51.148;13.738;2023-06-10T07:21:24;5.40;;;4.53;;
25249;SDS011;13201;51.148;13.738;2023-06-10T07:23:50;4.32;;;3.88;;
25249;SDS011;13201;51.148;13.738;2023-06-10T07:26:19;6.30;;;4.40;;
25249;SDS011;13201;51.148;13.738;2023-06-10T07:28:46;6.10;;;4.20;;
25249;SDS011;13201;51.148;13.738;2023-06-10T07:31:12;5.95;;;3.72;;
25249;SDS011;13201;51.148;13.738;2023-06-10T07:33:38;8.68;;;4.15;;
25249;SDS011;13201;51.148;13.738;2023-06-10T07:36:08;6.10;;;4.15;;
25249;SDS011;13201;51.148;13.738;2023-06-10T07:38:35;5.30;;;4.20;;
25249;SDS011;13201;51.148;13.738;2023-06-10T07:41:01;6.53;;;3.88;;
25249;SDS011;13201;51.148;13.738;2023-06-10T07:43:26;4.47;;;3.97;;
25249;SDS011;13201;51.148;13.738;2023-06-10T07:45:52;5.47;;;3.70;;
25249;SDS011;13201;51.148;13.738;2023-06-10T07:48:18;8.95;;;4.18;;
25249;SDS011;13201;51.148;13.738;2023-06-10T07:50:43;7.03;;;4.30;;
25249;SDS011;13201;51.148;13.738;2023-06-10T07:53:09;6.00;;;3.70;;
25249;SDS011;13201;51.148;13.738;2023-06-10T07:55:35;5.97;;;4.27;;
25249;SDS011;13201;51.148;13.738;2023-06-10T07:58:01;6.93;;;4.18;;
25249;SDS011;13201;51.148;13.738;2023-06-10T08:00:28;6.90;;;4.38;;
25249;SDS011;13201;51.148;13.738;2023-06-10T08:02:53;8.52;;;4.32;;
25249;SDS011;13201;51.148;13.738;2023-06-10T08:05:19;5.50;;;4.30;;
25249;SDS011;13201;51.148;13.738;2023-06-10T08:07:45;10.82;;;5.60;;
25249;SDS011;13201;51.148;13.738;2023-06-10T08:10:11;12.25;;;4.75;;
25249;SDS011;13201;51.148;13.738;2023-06-10T08:12:37;5.10;;;4.30;;
25249;SDS011;13201;51.148;13.738;2023-06-10T08:15:02;6.80;;;4.97;;
25249;SDS011;13201;51.148;13.738;2023-06-10T08:17:29;7.32;;;4.55;;
25249;SDS011;13201;51.148;13.738;2023-06-10T08:19:55;10.52;;;5.00;;
25249;SDS011;13201;51.148;13.738;2023-06-10T08:22:21;23.25;;;14.20;;
25249;SDS011;13201;51.148;13.738;2023-06-10T08:24:47;8.93;;;6.87;;
25249;SDS011;13201;51.148;13.738;2023-06-10T08:27:12;6.97;;;4.87;;
25249;SDS011;13201;51.148;13.738;2023-06-10T08:29:38;8.38;;;5.00;;
25249;SDS011;13201;51.148;13.738;2023-06-10T08:32:05;10.02;;;5.28;;
25249;SDS011;13201;51.148;13.738;2023-06-10T08:34:33;9.63;;;4.73;;
25249;SDS011;13201;51.148;13.738;2023-06-10T08:36:59;10.30;;;4.90;;
25249;SDS011;13201;51.148;13.738;2023-06-10T08:39:24;6.93;;;4.43;;
25249;SDS011;13201;51.148;13.738;2023-06-10T08:47:14;7.32;;;4.78;;
25249;SDS011;13201;51.148;13.738;2023-06-10T08:49:44;5.53;;;4.30;;
25249;SDS011;13201;51.148;13.738;2023-06-10T08:52:13;7.05;;;4.57;;
25249;SDS011;13201;51.148;13.738;2023-06-10T08:54:42;5.38;;;4.30;;
25249;SDS011;13201;51.148;13.738;2023-06-10T08:57:13;9.60;;;5.07;;
25249;SDS011;13201;51.148;13.738;2023-06-10T08:59:40;7.78;;;4.68;;
25249;SDS011;13201;51.148;13.738;2023-06-10T09:02:06;8.73;;;4.65;;
25249;SDS011;13201;51.148;13.738;2023-06-10T09:04:33;5.60;;;4.38;;
25249;SDS011;13201;51.148;13.738;2023-06-10T09:07:01;8.82;;;4.47;;
25249;SDS011;13201;51.148;13.738;2023-06-10T09:09:28;6.32;;;4.47;;
25249;SDS011;13201;51.148;13.738;2023-06-10T09:11:57;7.35;;;4.35;;
25249;SDS011;13201;51.148;13.738;2023-06-10T09:14:23;5.05;;;4.10;;
25249;SDS011;13201;51.148;13.738;2023-06-10T09:16:49;6.07;;;3.80;;
25249;SDS011;13201;51.148;13.738;2023-06-10T09:19:18;6.97;;;4.03;;
25249;SDS011;13201;51.148;13.738;2023-06-10T09:21:46;6.97;;;4.15;;
25249;SDS011;13201;51.148;13.738;2023-06-10T09:24:11;4.15;;;3.63;;
25249;SDS011;13201;51.148;13.738;2023-06-10T09:26:37;6.13;;;4.00;;
25249;SDS011;13201;51.148;13.738;2023-06-10T09:29:06;8.73;;;3.95;;
25249;SDS011;13201;51.148;13.738;2023-06-10T09:31:37;6.22;;;4.10;;
25249;SDS011;13201;51.148;13.738;2023-06-10T09:34:10;7.38;;;4.10;;
25249;SDS011;13201;51.148;13.738;2023-06-10T09:36:38;7.00;;;4.05;;
25249;SDS011;13201;51.148;13.738;2023-06-10T09:39:05;6.20;;;4.18;;
25249;SDS011;13201;51.148;13.738;2023-06-10T09:41:42;5.40;;;3.92;;
25249;SDS011;13201;51.148;13.738;2023-06-10T09:44:12;5.10;;;3.65;;
25249;SDS011;13201;51.148;13.738;2023-06-10T09:46:50;4.20;;;3.80;;
25249;SDS011;13201;51.148;13.738;2023-06-10T09:49:18;4.22;;;3.83;;
25249;SDS011;13201;51.148;13.738;2023-06-10T09:54:17;7.40;;;3.88;;
25249;SDS011;13201;51.148;13.738;2023-06-10T09:56:43;7.90;;;3.78;;
25249;SDS011;13201;51.148;13.738;2023-06-10T09:59:16;5.97;;;4.22;;
25249;SDS011;13201;51.148;13.738;2023-06-10T10:01:55;12.63;;;4.55;;
25249;SDS011;13201;51.148;13.738;2023-06-10T10:04:25;6.90;;;4.07;;
25249;SDS011;13201;51.148;13.738;2023-06-10T10:06:51;5.50;;;4.10;;
25249;SDS011;13201;51.148;13.738;2023-06-10T10:09:17;5.50;;;3.53;;
25249;SDS011;13201;51.148;13.738;2023-06-10T10:11:43;6.13;;;4.23;;
25249;SDS011;13201;51.148;13.738;2023-06-10T10:14:09;8.45;;;4.38;;
25249;SDS011;13201;51.148;13.738;2023-06-10T10:16:36;5.53;;;3.88;;
25249;SDS011;13201;51.148;13.738;2023-06-10T10:19:16;7.85;;;4.28;;
25249;SDS011;13201;51.148;13.738;2023-06-10T10:21:53;8.52;;;4.65;;
25249;SDS011;13201;51.148;13.738;2023-06-10T10:24:23;6.40;;;4.50;;
25249;SDS011;13201;51.148;13.738;2023-06-10T10:26:57;6.15;;;4.45;;
25249;SDS011;13201;51.148;13.738;2023-06-10T10:29:30;5.60;;;4.38;;
25249;SDS011;13201;51.148;13.738;2023-06-10T10:32:01;8.82;;;4.32;;
25249;SDS011;13201;51.148;13.738;2023-06-10T10:34:31;6.68;;;4.90;;
25249;SDS011;13201;51.148;13.738;2023-06-10T10:37:02;9.43;;;4.82;;
25249;SDS011;13201;51.148;13.738;2023-06-10T10:39:28;6.50;;;4.68;;
25249;SDS011;13201;51.148;13.738;2023-06-10T10:41:55;8.23;;;4.90;;
25249;SDS011;13201;51.148;13.738;2023-06-10T10:44:22;9.70;;;4.90;;
25249;SDS011;13201;51.148;13.738;2023-06-10T10:46:49;6.72;;;5.30;;
25249;SDS011;13201;51.148;13.738;2023-06-10T10:49:16;8.63;;;4.80;;
25249;SDS011;13201;51.148;13.738;2023-06-10T10:51:59;7.78;;;4.68;;
25249;SDS011;13201;51.148;13.738;2023-06-10T10:54:29;6.15;;;4.60;;
25249;SDS011;13201;51.148;13.738;2023-06-10T10:59:55;5.57;;;4.65;;
25249;SDS011;13201;51.148;13.738;2023-06-10T11:02:41;7.68;;;4.25;;
25249;SDS011;13201;51.148;13.738;2023-06-10T11:05:10;6.22;;;4.30;;
25249;SDS011;13201;51.148;13.738;2023-06-10T11:07:36;7.88;;;4.30;;
25249;SDS011;13201;51.148;13.738;2023-06-10T11:10:06;6.10;;;4.20;;
25249;SDS011;13201;51.148;13.738;2023-06-10T11:15:10;7.70;;;4.32;;
25249;SDS011;13201;51.148;13.738;2023-06-10T11:31:26;5.60;;;4.70;;
25249;SDS011;13201;51.148;13.738;2023-06-10T11:33:55;5.80;;;4.25;;
25249;SDS011;13201;51.148;13.738;2023-06-10T11:36:23;8.23;;;4.65;;
25249;SDS011;13201;51.148;13.738;2023-06-10T11:38:50;5.47;;;4.10;;
25249;SDS011;13201;51.148;13.738;2023-06-10T11:41:20;6.38;;;4.00;;
25249;SDS011;13201;51.148;13.738;2023-06-10T11:43:46;6.50;;;4.10;;
25249;SDS011;13201;51.148;13.738;2023-06-10T11:46:13;10.27;;;4.10;;
25249;SDS011;13201;51.148;13.738;2023-06-10T11:48:48;7.20;;;4.38;;
25249;SDS011;13201;51.148;13.738;2023-06-10T11:51:15;5.13;;;3.85;;
25249;SDS011;13201;51.148;13.738;2023-06-10T11:53:43;6.17;;;4.10;;
25249;SDS011;13201;51.148;13.738;2023-06-10T11:56:13;5.40;;;4.30;;
25249;SDS011;13201;51.148;13.738;2023-06-10T11:58:40;6.78;;;4.18;;
25249;SDS011;13201;51.148;13.738;2023-06-10T12:01:10;4.90;;;4.07;;
25249;SDS011;13201;51.148;13.738;2023-06-10T12:03:36;6.73;;;4.13;;
25249;SDS011;13201;51.148;13.738;2023-06-10T12:06:06;7.88;;;4.70;;
25249;SDS011;13201;51.148;13.738;2023-06-10T12:08:32;6.47;;;4.97;;
25249;SDS011;13201;51.148;13.738;2023-06-10T12:10:59;35.33;;;25.15;;
25249;SDS011;13201;51.148;13.738;2023-06-10T12:13:28;6.25;;;4.30;;
25249;SDS011;13201;51.148;13.738;2023-06-10T12:15:54;6.38;;;4.55;;
25249;SDS011;13201;51.148;13.738;2023-06-10T12:18:20;5.27;;;4.67;;
25249;SDS011;13201;51.148;13.738;2023-06-10T12:20:50;7.38;;;4.68;;
25249;SDS011;13201;51.148;13.738;2023-06-10T12:23:16;7.38;;;4.28;;
25249;SDS011;13201;51.148;13.738;2023-06-10T12:25:50;6.20;;;4.22;;
25249;SDS011;13201;51.148;13.738;2023-06-10T12:28:26;5.90;;;4.32;;
25249;SDS011;13201;51.148;13.738;2023-06-10T12:31:05;7.90;;;4.30;;
25249;SDS011;13201;51.148;13.738;2023-06-10T12:33:34;8.45;;;5.13;;
25249;SDS011;13201;51.148;13.738;2023-06-10T12:36:00;9.30;;;4.50;;
25249;SDS011;13201;51.148;13.738;2023-06-10T12:38:26;7.70;;;4.87;;
25249;SDS011;13201;51.148;13.738;2023-06-10T12:40:52;7.18;;;4.68;;
25249;SDS011;13201;51.148;13.738;2023-06-10T12:43:24;5.22;;;4.47;;
25249;SDS011;13201;51.148;13.738;2023-06-10T12:45:50;5.70;;;3.92;;
25249;SDS011;13201;51.148;13.738;2023-06-10T12:48:20;4.67;;;4.23;;
25249;SDS011;13201;51.148;13.738;2023-06-10T12:50:51;8.25;;;4.63;;
25249;SDS011;13201;51.148;13.738;2023-06-10T12:53:18;7.60;;;4.32;;
25249;SDS011;13201;51.148;13.738;2023-06-10T12:55:45;5.80;;;4.70;;
25249;SDS011;13201;51.148;13.738;2023-06-10T12:58:12;5.53;;;4.45;;
25249;SDS011;13201;51.148;13.738;2023-06-10T13:00:38;9.90;;;4.57;;
25249;SDS011;13201;51.148;13.738;2023-06-10T13:03:04;5.70;;;4.30;;
25249;SDS011;13201;51.148;13.738;2023-06-10T13:05:31;5.65;;;4.53;;
25249;SDS011;13201;51.148;13.738;2023-06-10T13:07:58;5.18;;;4.07;;
25249;SDS011;13201;51.148;13.738;2023-06-10T13:10:24;5.10;;;4.07;;
25249;SDS011;13201;51.148;13.738;2023-06-10T13:12:51;7.45;;;4.70;;
25249;SDS011;13201;51.148;13.738;2023-06-10T13:17:43;8.23;;;5.10;;
25249;SDS011;13201;51.148;13.738;2023-06-10T13:20:11;5.57;;;4.82;;
25249;SDS011;13201;51.148;13.738;2023-06-10T13:22:37;7.93;;;5.20;;
25249;SDS011;13201;51.148;13.738;2023-06-10T13:25:03;7.87;;;4.90;;
25249;SDS011;13201;51.148;13.738;2023-06-10T13:27:31;6.82;;;4.68;;
25249;SDS011;13201;51.148;13.738;2023-06-10T13:29:57;5.45;;;4.13;;
25249;SDS011;13201;51.148;13.738;2023-06-10T13:32:23;5.20;;;4.37;;
25249;SDS011;13201;51.148;13.738;2023-06-10T13:34:49;5.43;;;4.37;;
25249;SDS011;13201;51.148;13.738;2023-06-10T13:37:15;8.70;;;4.50;;
25249;SDS011;13201;51.148;13.738;2023-06-10T13:39:44;7.32;;;4.68;;
25249;SDS011;13201;51.148;13.738;2023-06-10T13:42:12;6.72;;;4.45;;
25249;SDS011;13201;51.148;13.738;2023-06-10T13:44:37;7.17;;;4.63;;
25249;SDS011;13201;51.148;13.738;2023-06-10T13:47:03;6.17;;;3.87;;
25249;SDS011;13201;51.148;13.738;2023-06-10T13:49:29;7.30;;;4.28;;
25249;SDS011;13201;51.148;13.738;2023-06-10T13:51:55;5.43;;;3.95;;
25249;SDS011;13201;51.148;13.738;2023-06-10T13:54:21;6.40;;;3.77;;
25249;SDS011;13201;51.148;13.738;2023-06-10T13:56:47;4.68;;;3.30;;
25249;SDS011;13201;51.148;13.738;2023-06-10T13:59:13;4.33;;;2.83;;
25249;SDS011;13201;51.148;13.738;2023-06-10T14:01:39;4.88;;;2.72;;
25249;SDS011;13201;51.148;13.738;2023-06-10T14:04:05;4.45;;;3.30;;
25249;SDS011;13201;51.148;13.738;2023-06-10T14:06:32;3.63;;;2.58;;
25249;SDS011;13201;51.148;13.738;2023-06-10T14:08:58;4.40;;;3.00;;
25249;SDS011;13201;51.148;13.738;2023-06-10T14:11:24;5.50;;;3.10;;
25249;SDS011;13201;51.148;13.738;2023-06-10T14:13:50;5.13;;;3.10;;
25249;SDS011;13201;51.148;13.738;2023-06-10T14:16:16;4.23;;;3.07;;
25249;SDS011;13201;51.148;13.738;2023-06-10T14:18:41;4.00;;;3.03;;
25249;SDS011;13201;51.148;13.738;2023-06-10T14:21:07;8.17;;;3.53;;
25249;SDS011;13201;51.148;13.738;2023-06-10T14:23:33;5.07;;;3.27;;
25249;SDS011;13201;51.148;13.738;2023-06-10T14:25:59;3.73;;;3.23;;
25249;SDS011;13201;51.148;13.738;2023-06-10T14:28:24;6.43;;;3.15;;
25249;SDS011;13201;51.148;13.738;2023-06-10T14:30:52;5.78;;;3.50;;
25249;SDS011;13201;51.148;13.738;2023-06-10T14:33:18;3.58;;;3.17;;
25249;SDS011;13201;51.148;13.738;2023-06-10T14:35:44;3.90;;;3.50;;
25249;SDS011;13201;51.148;13.738;2023-06-10T14:38:10;16.52;;;3.65;;
25249;SDS011;13201;51.148;13.738;2023-06-10T14:40:35;5.67;;;3.57;;
25249;SDS011;13201;51.148;13.738;2023-06-10T14:43:01;6.83;;;3.20;;
25249;SDS011;13201;51.148;13.738;2023-06-10T14:45:29;3.80;;;3.15;;
25249;SDS011;13201;51.148;13.738;2023-06-10T14:47:55;3.53;;;3.05;;
25249;SDS011;13201;51.148;13.738;2023-06-10T14:50:20;6.30;;;3.20;;
25249;SDS011;13201;51.148;13.738;2023-06-10T14:52:46;4.60;;;3.10;;
25249;SDS011;13201;51.148;13.738;2023-06-10T14:55:12;4.60;;;3.67;;
25249;SDS011;13201;51.148;13.738;2023-06-10T14:57:37;5.25;;;3.63;;
25249;SDS011;13201;51.148;13.738;2023-06-10T15:00:03;4.70;;;3.83;;
25249;SDS011;13201;51.148;13.738;2023-06-10T15:02:29;4.35;;;3.75;;
25249;SDS011;13201;51.148;13.738;2023-06-10T15:04:55;4.63;;;3.57;;
25249;SDS011;13201;51.148;13.738;2023-06-10T15:07:21;4.93;;;3.77;;
25249;SDS011;13201;51.148;13.738;2023-06-10T15:09:46;4.93;;;4.13;;
25249;SDS011;13201;51.148;13.738;2023-06-10T15:12:12;4.03;;;3.43;;
25249;SDS011;13201;51.148;13.738;2023-06-10T15:14:38;6.37;;;4.20;;
25249;SDS011;13201;51.148;13.738;2023-06-10T15:17:03;6.70;;;4.30;;
25249;SDS011;13201;51.148;13.738;2023-06-10T15:19:29;6.60;;;4.30;;
25249;SDS011;13201;51.148;13.738;2023-06-10T15:21:54;8.03;;;6.17;;
25249;SDS011;13201;51.148;13.738;2023-06-10T15:24:20;6.87;;;5.00;;
25249;SDS011;13201;51.148;13.738;2023-06-10T15:26:46;6.70;;;4.30;;
25249;SDS011;13201;51.148;13.738;2023-06-10T15:29:11;6.13;;;4.13;;
25249;SDS011;13201;51.148;13.738;2023-06-10T15:31:37;6.47;;;4.43;;